Time;durP1;ratioP1;P1;durP2;ratioP2;P2;SDS_P1;SDS_P2;PMS_P1;PMS_P2;Temp;Humidity;BMP_temperature;BMP_pressure;BME280_temperature;BME280_humidity;BME280_pressure;Samples;Min_cycle;Max_cycle;Signal;HPM_P1;HPM_P2
2024/03/20 00:01:40;;;;;;;16.50;9.88;;;6.40;99.90;;;5.03;70.91;101773.97;4880062;28;20047;-80
2024/03/20 00:04:08;;;;;;;17.15;10.02;;;6.30;99.90;;;5.00;70.58;101763.56;4890998;29;20525;-80
2024/03/20 00:06:41;;;;;;;17.95;9.93;;;6.30;99.90;;;4.96;70.54;101770.53;4867458;29;20120;-79
2024/03/20 00:09:10;;;;;;;19.98;10.38;;;6.30;99.90;;;4.92;70.57;101763.59;4886631;29;20035;-80
2024/03/20 00:11:36;;;;;;;16.52;9.80;;;6.20;99.90;;;4.85;71.00;101754.94;4897445;29;20036;-80
2024/03/20 00:14:07;;;;;;;17.13;9.75;;;6.20;99.90;;;4.77;70.82;101754.13;4874119;29;20066;-79
2024/03/20 00:16:35;;;;;;;20.02;10.27;;;6.10;99.90;;;4.70;71.05;101753.28;4867538;29;20065;-78
2024/03/20 00:19:01;;;;;;;16.52;9.70;;;6.00;99.90;;;4.66;71.11;101746.34;4861237;29;20126;-79
2024/03/20 00:21:27;;;;;;;20.60;10.40;;;6.00;99.90;;;4.58;71.50;101744.66;4886225;29;20039;-80
2024/03/20 00:23:53;;;;;;;20.92;10.20;;;5.90;99.90;;;4.54;71.31;101736.00;4884818;29;20036;-79
2024/03/20 00:26:23;;;;;;;15.95;9.70;;;5.90;99.90;;;4.51;71.37;101730.78;4877224;29;20051;-80
2024/03/20 00:28:49;;;;;;;17.52;10.32;;;5.90;99.90;;;4.51;71.39;101734.28;4859504;29;20088;-79
2024/03/20 00:31:15;;;;;;;16.85;10.13;;;5.80;99.90;;;4.47;71.62;101731.66;4895992;28;20181;-79
2024/03/20 00:33:40;;;;;;;18.33;9.90;;;5.80;99.90;;;4.45;71.78;101730.81;4878249;29;20094;-79
2024/03/20 00:36:06;;;;;;;18.05;10.48;;;5.80;99.90;;;4.44;72.04;101727.34;4872987;29;20046;-79
2024/03/20 00:38:32;;;;;;;18.58;10.35;;;5.80;99.90;;;4.46;72.06;101729.97;4894294;29;20032;-79
2024/03/20 00:41:05;;;;;;;20.67;10.40;;;5.80;99.90;;;4.41;71.97;101724.78;4872850;29;20024;-80
2024/03/20 00:43:31;;;;;;;18.30;9.88;;;5.80;99.90;;;4.39;72.26;101723.91;4882762;29;20544;-79
2024/03/20 00:45:57;;;;;;;18.65;10.43;;;5.80;99.90;;;4.41;72.18;101718.69;4882130;29;20036;-79
2024/03/20 00:48:23;;;;;;;18.27;10.23;;;5.80;99.90;;;4.45;72.36;101715.16;4881930;29;20590;-79
2024/03/20 00:50:49;;;;;;;16.35;9.77;;;5.80;99.90;;;4.44;72.26;101709.09;4874760;29;20043;-79
2024/03/20 00:53:19;;;;;;;19.92;10.38;;;5.80;99.90;;;4.46;72.23;101714.31;4862537;29;20024;-79
2024/03/20 00:55:45;;;;;;;18.63;10.48;;;5.80;99.90;;;4.48;72.26;101723.00;4847418;29;20132;-80
2024/03/20 00:58:12;;;;;;;17.92;9.90;;;5.80;99.90;;;4.53;72.36;101723.81;4856812;29;20043;-79
2024/03/20 01:00:39;;;;;;;22.67;10.93;;;5.90;99.90;;;4.55;72.14;101716.84;4867420;28;20462;-79
2024/03/20 01:03:05;;;;;;;18.23;10.45;;;5.90;99.90;;;4.56;72.01;101721.22;4854981;29;20040;-79
2024/03/20 01:05:38;;;;;;;22.70;10.77;;;5.90;99.90;;;4.57;72.42;101714.25;4866598;29;20039;-79
2024/03/20 01:08:05;;;;;;;19.33;10.60;;;5.90;99.90;;;4.56;72.02;101712.50;4854993;29;20053;-79
2024/03/20 01:10:31;;;;;;;16.50;10.05;;;5.90;99.90;;;4.46;72.44;101703.88;4861455;29;20042;-79
2024/03/20 01:12:57;;;;;;;21.73;9.93;;;5.80;99.90;;;4.42;73.13;101709.97;4854950;29;20052;-79
2024/03/20 01:15:27;;;;;;;21.52;11.13;;;5.80;99.90;;;4.35;72.92;101692.66;4863399;29;20036;-79
2024/03/20 01:17:54;;;;;;;21.77;10.70;;;5.70;99.90;;;4.30;73.79;101690.06;4854976;29;20043;-79
2024/03/20 01:20:20;;;;;;;19.23;9.60;;;5.70;99.90;;;4.26;73.84;101678.78;4872246;29;20043;-80
2024/03/20 01:22:46;;;;;;;16.63;9.80;;;5.70;99.90;;;4.25;74.43;101676.16;4882552;23;20081;-79
2024/03/20 01:25:11;;;;;;;20.70;9.65;;;5.70;99.90;;;4.26;74.61;101670.09;4908513;29;20039;-79
2024/03/20 01:27:40;;;;;;;20.08;10.98;;;5.70;99.90;;;4.31;74.79;101674.38;4946068;28;20052;-79
2024/03/20 01:30:09;;;;;;;16.27;9.88;;;5.70;99.90;;;4.40;74.00;101670.00;4894753;28;20043;-79
2024/03/20 01:32:35;;;;;;;18.88;10.80;;;5.80;99.90;;;4.44;74.13;101677.78;4902809;28;20091;-78
2024/03/20 01:35:01;;;;;;;18.40;10.82;;;5.80;99.90;;;4.48;73.74;101678.66;4856502;28;20043;-79
2024/03/20 01:37:27;;;;;;;19.67;10.57;;;5.80;99.90;;;4.52;73.52;101680.38;4899722;29;20529;-79
2024/03/20 01:39:53;;;;;;;21.20;11.25;;;5.80;99.90;;;4.52;73.59;101675.16;4899268;28;20032;-79
2024/03/20 01:42:23;;;;;;;20.80;11.07;;;5.90;99.90;;;4.52;73.66;101672.53;4891107;28;20037;-80
2024/03/20 01:44:50;;;;;;;20.13;10.85;;;5.80;99.90;;;4.51;74.02;101674.28;4869357;28;20032;-79
2024/03/20 01:47:16;;;;;;;19.40;11.38;;;5.80;99.90;;;4.53;74.13;101666.44;4900356;28;20035;-79
2024/03/20 01:49:42;;;;;;;18.30;10.98;;;5.90;99.90;;;4.55;74.05;101669.91;4858270;29;20036;-79
2024/03/20 01:52:08;;;;;;;23.70;11.27;;;5.90;99.90;;;4.57;73.99;101668.16;4863719;29;20047;-80
2024/03/20 01:54:34;;;;;;;18.10;10.77;;;5.90;99.90;;;4.59;73.90;101665.53;4864749;29;20035;-78
2024/03/20 01:57:05;;;;;;;19.02;10.90;;;;;;;4.61;73.78;101650.75;4878533;28;20055;-79
2024/03/20 01:59:31;;;;;;;22.05;10.98;;;5.90;99.90;;;4.62;73.81;101655.06;4888399;28;20035;-80
2024/03/20 02:01:57;;;;;;;21.70;11.40;;;6.00;99.90;;;4.65;73.50;101649.84;4875678;28;20728;-79
2024/03/20 02:04:22;;;;;;;20.35;10.52;;;6.00;99.90;;;4.64;73.69;101645.50;4878891;28;20606;-79
2024/03/20 02:06:48;;;;;;;19.48;11.18;;;6.00;99.90;;;4.64;73.85;101635.91;4887621;28;20035;-79
2024/03/20 02:09:19;;;;;;;21.15;12.10;;;6.00;99.90;;;4.67;73.52;101641.13;4891174;28;20028;-79
2024/03/20 02:11:45;;;;;;;17.98;11.25;;;6.00;99.90;;;4.71;73.30;101658.50;4877188;29;20044;-79
2024/03/20 02:14:11;;;;;;;22.00;12.02;;;6.10;99.90;;;4.76;73.17;101663.69;4858133;29;20139;-79
2024/03/20 02:16:37;;;;;;;20.92;11.68;;;6.10;99.90;;;4.82;73.01;101674.06;4868257;29;20610;-79
2024/03/20 02:19:03;;;;;;;19.27;11.00;;;6.20;99.90;;;4.85;72.93;101689.69;4864990;29;20110;-79
2024/03/20 02:21:29;;;;;;;21.02;11.40;;;6.20;99.90;;;4.89;72.83;101694.03;4878712;28;20033;-79
2024/03/20 02:24:02;;;;;;;23.88;10.73;;;6.20;99.90;;;4.92;72.72;101686.19;4917698;28;20510;-79
2024/03/20 02:26:28;;;;;;;21.20;10.88;;;6.20;99.90;;;4.86;72.44;101664.47;4853129;29;20040;-79
2024/03/20 02:28:53;;;;;;;21.42;11.40;;;6.20;99.90;;;4.83;72.26;101661.88;4848555;29;20055;-79
2024/03/20 02:31:19;;;;;;;22.50;10.88;;;6.20;99.90;;;4.84;72.29;101668.84;4861293;29;20159;-80
2024/03/20 02:33:45;;;;;;;20.00;11.00;;;6.20;99.90;;;4.89;72.09;101678.34;4899125;29;20581;-79
2024/03/20 02:36:18;;;;;;;23.00;11.05;;;6.20;99.90;;;4.96;72.71;101673.94;4851884;29;20028;-80
2024/03/20 02:38:44;;;;;;;20.65;10.75;;;6.20;99.90;;;4.91;72.19;101660.94;4857951;29;20428;-79
2024/03/20 02:41:10;;;;;;;20.85;10.18;;;6.20;99.90;;;4.83;72.62;101654.91;4883987;29;20042;-79
2024/03/20 02:43:36;;;;;;;21.42;11.38;;;6.20;99.90;;;4.82;72.14;101660.16;4856434;28;20047;-80
2024/03/20 02:46:11;;;;;;;23.75;11.30;;;6.20;99.90;;;4.90;72.31;101663.56;4868175;29;20035;-79
2024/03/20 02:48:37;;;;;;;20.73;11.93;;;6.20;99.90;;;4.89;72.10;101660.09;4874079;29;20047;-79
2024/03/20 02:51:03;;;;;;;18.88;10.80;;;6.30;99.90;;;4.93;71.77;101669.63;4868870;28;20032;-79
2024/03/20 02:53:29;;;;;;;20.75;11.82;;;6.30;99.90;;;5.01;71.93;101673.91;4866237;28;20106;-79
2024/03/20 02:55:58;;;;;;;18.20;10.95;;;6.30;99.90;;;5.04;71.72;101664.31;4892031;29;20027;-80
2024/03/20 02:58:24;;;;;;;19.08;11.07;;;6.30;99.90;;;5.02;71.77;101663.47;4850298;29;20056;-79
2024/03/20 03:00:49;;;;;;;17.85;10.95;;;6.40;99.90;;;5.03;71.46;101662.59;4865155;29;20028;-79
2024/03/20 03:03:15;;;;;;;22.90;11.82;;;6.40;99.90;;;5.07;71.68;101672.09;4880288;29;20067;-78
2024/03/20 03:05:41;;;;;;;21.45;11.65;;;6.40;99.90;;;5.11;71.90;101676.44;4906050;29;20052;-80
2024/03/20 03:08:07;;;;;;;19.25;11.75;;;6.40;99.90;;;5.15;71.44;101674.66;4857953;29;20414;-79
2024/03/20 03:10:33;;;;;;;21.70;12.38;;;6.40;99.90;;;5.18;71.50;101672.00;4887997;29;20037;-79
2024/03/20 03:13:01;;;;;;;21.42;12.48;;;6.40;99.90;;;5.17;71.28;101667.69;4855721;29;21015;-80
2024/03/20 03:15:33;;;;;;;17.65;11.00;;;6.40;99.90;;;5.15;71.34;101666.84;4866320;28;20062;-79
2024/03/20 03:17:59;;;;;;;21.50;11.32;;;6.40;99.90;;;5.14;71.49;101665.97;4880917;28;20039;-79
2024/03/20 03:20:26;;;;;;;22.50;13.38;;;6.40;99.90;;;5.15;71.40;101653.78;4908154;29;20035;-78
2024/03/20 03:23:00;;;;;;;46.22;21.70;;;6.40;99.90;;;5.16;71.85;101657.25;4869521;29;20060;-79
2024/03/20 03:25:25;;;;;;;28.08;15.00;;;6.50;99.90;;;5.16;71.82;101652.03;4886721;29;20054;-78
2024/03/20 03:27:51;;;;;;;20.27;12.02;;;6.50;99.90;;;5.14;71.77;101654.69;4866443;29;20088;-79
2024/03/20 03:30:25;;;;;;;20.65;11.38;;;6.40;99.90;;;5.10;71.59;101661.66;4848971;29;20048;-80
2024/03/20 03:32:51;;;;;;;18.58;11.45;;;6.40;99.90;;;5.07;72.19;101659.06;4880796;29;20028;-79
2024/03/20 03:35:17;;;;;;;19.73;11.30;;;6.40;99.90;;;5.04;71.88;101653.88;4857925;28;20516;-80
2024/03/20 03:37:43;;;;;;;25.33;12.63;;;6.40;99.90;;;4.98;72.11;101653.06;4842539;29;20052;-79
2024/03/20 03:40:10;;;;;;;17.95;11.13;;;6.30;99.90;;;4.97;72.57;101653.94;4866671;28;20547;-80
2024/03/20 03:42:44;;;;;;;21.05;11.85;;;6.30;99.90;;;4.94;72.66;101649.59;4898236;28;20036;-79
2024/03/20 03:45:10;;;;;;;20.48;12.27;;;6.30;99.90;;;4.95;72.74;101646.13;4856579;29;20600;-80
2024/03/20 03:47:36;;;;;;;21.75;11.85;;;6.30;99.90;;;4.95;72.79;101648.75;4909388;29;20051;-79
2024/03/20 03:50:05;;;;;;;22.50;11.82;;;6.30;99.90;;;4.91;72.76;101649.66;4911906;28;20048;-79
2024/03/20 03:52:34;;;;;;;22.98;12.32;;;6.30;99.90;;;4.90;73.40;101643.56;4846387;29;20047;-79
2024/03/20 03:54:59;;;;;;;21.10;12.15;;;6.20;99.90;;;4.93;73.04;101658.34;4847106;29;20063;-79
2024/03/20 03:57:25;;;;;;;19.08;11.55;;;6.30;99.90;;;4.96;73.17;101660.91;4839621;29;20119;-79
2024/03/20 03:59:51;;;;;;;20.83;12.10;;;6.30;99.90;;;5.00;72.82;101657.38;4865879;28;20036;-79
2024/03/20 04:02:17;;;;;;;21.75;12.13;;;6.30;99.90;;;5.01;72.63;101656.53;4845687;29;20035;-79
2024/03/20 04:04:49;;;;;;;21.30;12.52;;;6.30;99.90;;;4.98;72.60;101646.09;4874183;28;20047;-79
2024/03/20 04:07:15;;;;;;;21.40;11.25;;;6.30;99.90;;;4.93;73.16;101646.13;4878900;28;20415;-79
2024/03/20 04:09:41;;;;;;;20.35;11.73;;;6.20;99.90;;;4.84;73.25;101642.75;4877277;29;20044;-79
2024/03/20 04:12:07;;;;;;;19.63;11.52;;;6.20;99.90;;;4.77;73.12;101636.69;4890793;29;20410;-79
2024/03/20 04:14:33;;;;;;;22.90;12.18;;;6.20;99.90;;;4.76;73.67;101642.81;4914249;28;20036;-79
2024/03/20 04:17:06;;;;;;;21.15;12.43;;;6.20;99.90;;;4.78;74.00;101645.41;4862047;29;20051;-79
2024/03/20 04:19:32;;;;;;;20.88;11.50;;;6.10;99.90;;;4.79;73.75;101636.69;4896010;29;20668;-80
2024/03/20 04:21:59;;;;;;;21.55;12.07;;;6.10;99.90;;;4.76;73.97;101639.34;4868558;28;20037;-79
2024/03/20 04:24:25;;;;;;;23.02;12.07;;;6.10;99.90;;;4.77;74.08;101628.00;4869386;29;20635;-79
2024/03/20 04:26:58;;;;;;;21.42;11.73;;;6.10;99.90;;;4.74;73.87;101628.91;4863230;29;20040;-80
2024/03/20 04:29:25;;;;;;;23.10;12.40;;;6.10;99.90;;;4.75;74.26;101624.53;4866088;29;20115;-79
2024/03/20 04:31:51;;;;;;;22.98;12.43;;;6.10;99.90;;;4.77;74.05;101628.88;4865713;29;20044;-79
2024/03/20 04:34:17;;;;;;;21.92;12.85;;;6.10;99.90;;;4.79;74.06;101626.25;4882320;29;20039;-79
2024/03/20 04:36:47;;;;;;;23.83;12.35;;;6.10;99.90;;;4.81;74.19;101627.97;4861446;28;20582;-79
2024/03/20 04:39:13;;;;;;;20.58;12.52;;;6.10;99.90;;;4.83;74.12;101635.78;4888354;28;20032;-79
2024/03/20 04:41:39;;;;;;;22.33;12.40;;;6.20;99.90;;;4.84;74.07;101629.72;4895136;29;20042;-79
2024/03/20 04:44:05;;;;;;;23.42;12.90;;;6.20;99.90;;;4.83;73.96;101627.97;4880987;29;20437;-79
2024/03/20 04:46:32;;;;;;;20.00;12.25;;;6.20;99.90;;;4.83;73.90;101618.38;4897024;28;20178;-79
2024/03/20 04:49:03;;;;;;;20.52;12.65;;;6.20;99.90;;;4.86;73.84;101623.59;4872211;29;20032;-80
2024/03/20 04:51:29;;;;;;;22.60;12.35;;;6.20;99.90;;;4.88;73.39;101616.63;4860605;28;20023;-80
2024/03/20 04:53:54;;;;;;;20.73;12.23;;;6.20;99.90;;;4.89;73.50;101622.69;4867781;29;20039;-79
2024/03/20 04:56:20;;;;;;;22.10;13.07;;;6.20;99.90;;;4.87;73.45;101620.09;4863301;28;20580;-79
2024/03/20 04:58:46;;;;;;;20.25;12.30;;;6.20;99.90;;;4.88;73.46;101615.72;4847308;29;20029;-79
2024/03/20 05:01:12;;;;;;;20.20;12.32;;;6.20;99.90;;;4.89;73.17;101614.88;4862803;29;20035;-80
2024/03/20 05:03:44;;;;;;;23.70;12.85;;;6.20;99.90;;;4.85;73.19;101613.16;4897125;28;20118;-80
2024/03/20 05:06:10;;;;;;;25.25;12.85;;;6.20;99.90;;;4.81;73.08;101616.66;4903438;29;20074;-79
2024/03/20 05:08:36;;;;;;;28.88;12.98;;;6.20;99.90;;;4.78;73.45;101609.75;4850658;28;20050;-79
2024/03/20 05:11:02;;;;;;;25.60;12.27;;;6.10;99.90;;;4.77;73.99;101617.56;4872402;29;20036;-80
2024/03/20 05:13:28;;;;;;;20.30;12.10;;;6.10;99.90;;;4.73;74.09;101615.00;4889098;28;20085;-80
2024/03/20 05:15:54;;;;;;;24.98;12.65;;;6.10;99.90;;;4.70;74.43;101612.41;4869511;28;20024;-79
2024/03/20 05:18:24;;;;;;;21.23;12.90;;;6.10;99.90;;;4.68;74.50;101611.53;4898439;29;20102;-80
2024/03/20 05:20:50;;;;;;;23.50;12.75;;;6.10;99.90;;;4.69;74.88;101613.28;4865197;29;20056;-79
2024/03/20 05:23:15;;;;;;;25.50;12.15;;;6.00;99.90;;;4.70;74.97;101614.16;4865062;29;20046;-79
2024/03/20 05:25:41;;;;;;;26.83;13.57;;;6.10;99.90;;;4.70;75.00;101615.00;4902118;29;20506;-80
2024/03/20 05:28:07;;;;;;;27.42;13.98;;;6.10;99.90;;;4.73;75.31;101621.97;4844542;28;20180;-80
2024/03/20 05:30:33;;;;;;;24.70;14.10;;;6.10;99.90;;;4.70;75.11;101617.63;4848857;29;20048;-80
2024/03/20 05:33:08;;;;;;;23.90;12.98;;;6.10;99.90;;;4.71;75.78;101621.97;4867683;29;20138;-79
2024/03/20 05:35:34;;;;;;;22.83;13.40;;;6.10;99.90;;;4.70;75.66;101619.38;4890433;28;20335;-80
2024/03/20 05:37:59;;;;;;;22.52;12.82;;;6.10;99.90;;;4.68;75.73;101619.38;4903043;29;20124;-80
2024/03/20 05:40:25;;;;;;;22.58;12.45;;;6.00;99.90;;;4.63;76.17;101620.31;4867350;28;20070;-79
2024/03/20 05:42:54;;;;;;;27.90;13.77;;;6.00;99.90;;;4.59;76.60;101614.22;4859187;28;20043;-80
2024/03/20 05:45:19;;;;;;;22.55;12.88;;;6.00;99.90;;;4.57;77.00;101610.78;4863204;29;20036;-80
2024/03/20 05:47:45;;;;;;;24.00;13.50;;;6.00;99.90;;;4.54;77.11;101605.59;4867018;29;20466;-79
2024/03/20 05:50:11;;;;;;;27.02;13.35;;;5.90;99.90;;;4.54;77.41;101617.78;4871701;28;20047;-80
2024/03/20 05:52:37;;;;;;;27.15;13.18;;;5.90;99.90;;;4.56;77.76;101611.66;4872180;29;20052;-79
2024/03/20 05:55:03;;;;;;;25.25;12.48;;;5.90;99.90;;;4.55;77.91;101612.53;4899949;29;20115;-79
2024/03/20 05:57:29;;;;;;;24.17;13.25;;;5.90;99.90;;;4.54;78.13;101608.19;4873753;29;20843;-79
2024/03/20 06:00:00;;;;;;;21.33;12.85;;;6.00;99.90;;;4.60;78.34;101615.09;4857466;29;20363;-78
2024/03/20 06:02:27;;;;;;;23.90;13.18;;;6.00;99.90;;;4.58;78.22;101611.63;4852718;29;20052;-80
2024/03/20 06:04:52;;;;;;;28.42;13.38;;;6.00;99.90;;;4.58;78.15;101612.53;4867315;28;20052;-80
2024/03/20 06:07:18;;;;;;;23.27;12.30;;;6.00;99.90;;;4.63;78.26;101609.88;4890781;28;20057;-80
2024/03/20 06:09:44;;;;;;;23.60;14.30;;;6.00;99.90;;;4.67;78.53;101616.78;4859906;29;20100;-80
2024/03/20 06:12:12;;;;;;;24.52;14.48;;;6.00;99.90;;;4.70;78.04;101617.63;4867763;29;20040;-80
2024/03/20 06:14:39;;;;;;;23.23;12.32;;;6.10;99.90;;;4.73;78.03;101621.97;4840794;29;20129;-80
2024/03/20 06:17:05;;;;;;;21.85;12.90;;;6.10;99.90;;;4.79;77.78;101626.25;4845315;29;20033;-80
2024/03/20 06:19:31;;;;;;;26.50;13.68;;;6.10;99.90;;;4.83;77.45;101628.81;4876525;29;20043;-80
2024/03/20 06:21:57;;;;;;;21.80;12.90;;;6.20;99.90;;;4.89;77.42;101626.16;4860103;28;20115;-80
2024/03/20 06:24:23;;;;;;;27.67;13.70;;;6.20;99.90;;;4.90;77.24;101624.41;4871811;28;20127;-80
2024/03/20 06:26:49;;;;;;;27.00;14.40;;;6.30;99.90;;;4.95;77.12;101627.88;4862139;29;20119;-81
2024/03/20 06:29:17;;;;;;;24.05;13.57;;;6.30;99.90;;;5.03;77.47;101630.38;4854605;29;20048;-80
2024/03/20 06:31:46;;;;;;;30.02;13.43;;;6.40;99.90;;;5.11;76.87;101629.44;4913225;29;20831;-80
2024/03/20 06:34:11;;;;;;;25.20;13.60;;;6.40;99.90;;;5.18;76.58;101629.38;4879030;29;20047;-80
2024/03/20 06:36:40;;;;;;;26.10;14.13;;;6.50;99.90;;;5.19;76.18;101632.00;4856221;29;20059;-80
2024/03/20 06:39:08;;;;;;;21.08;11.65;;;6.50;99.90;;;5.16;76.24;101621.56;4874438;29;20040;-80
2024/03/20 06:41:37;;;;;;;19.95;11.55;;;6.60;99.90;;;5.25;76.05;101628.47;4869463;29;20044;-80
2024/03/20 06:44:07;;;;;;;26.38;13.13;;;6.60;99.90;;;5.32;75.80;101617.91;4861900;29;20028;-80
2024/03/20 06:46:33;;;;;;;22.88;13.75;;;6.70;99.90;;;5.42;75.89;101621.31;4887333;29;20050;-80
2024/03/20 06:49:09;;;;;;;27.52;14.07;;;6.80;99.90;;;5.55;75.67;101635.09;4877384;29;20040;-80
2024/03/20 06:51:36;;;;;;;23.30;13.88;;;6.80;99.90;;;5.53;75.28;101635.13;4886138;29;20469;-80
2024/03/20 06:54:16;;;;;;;24.25;13.65;;;;;;;5.55;75.20;101635.09;4854014;29;20233;-81
2024/03/20 06:56:58;;;;;;;26.63;13.43;;;6.90;99.90;;;5.59;75.46;101641.13;4908301;29;20044;-80
2024/03/20 06:59:33;;;;;;;22.70;12.25;;;6.90;99.90;;;5.64;75.51;101640.22;4880176;29;20159;-81
2024/03/20 07:02:01;;;;;;;24.85;13.82;;;7.00;99.90;;;5.74;75.55;101638.34;4893434;28;20039;-80
2024/03/20 07:04:37;;;;;;;24.70;13.43;;;7.00;99.90;;;5.77;75.09;101630.50;4879919;28;20533;-79
2024/03/20 07:07:04;;;;;;;27.40;12.77;;;7.10;99.90;;;5.83;75.10;101634.75;4882546;29;20048;-80
2024/03/20 07:09:34;;;;;;;18.85;12.68;;;7.20;99.90;;;5.87;74.43;101636.44;4863182;29;20064;-81
2024/03/20 07:12:01;;;;;;;22.40;12.10;;;7.20;99.90;;;5.85;74.32;101623.41;4866529;29;20065;-80
2024/03/20 07:14:29;;;;;;;22.27;11.60;;;7.20;99.90;;;5.88;73.88;101633.81;4849069;29;20040;-80
2024/03/20 07:16:56;;;;;;;22.40;12.20;;;7.30;99.90;;;5.97;74.10;101632.03;4883455;28;20075;-80
2024/03/20 07:19:22;;;;;;;21.83;13.35;;;7.30;99.90;;;6.05;74.31;101635.41;4894955;29;20473;-80
2024/03/20 07:21:51;;;;;;;26.00;13.45;;;7.40;99.90;;;6.19;73.32;101663.97;4862650;28;20153;-80
2024/03/20 07:24:17;;;;;;;28.75;13.90;;;7.50;99.90;;;6.33;73.63;101675.97;4882731;29;20051;-80
2024/03/20 07:26:42;;;;;;;20.45;13.27;;;7.60;99.90;;;6.46;73.59;101673.19;4876084;28;20039;-80
2024/03/20 07:29:10;;;;;;;21.60;13.43;;;7.80;99.90;;;6.60;73.43;101691.31;4890488;28;20036;-80
2024/03/20 07:31:41;;;;;;;21.60;12.95;;;7.90;99.90;;;6.71;73.01;101673.69;4874644;29;20562;-80
2024/03/20 07:34:09;;;;;;;22.52;13.43;;;8.00;99.90;;;6.80;71.65;101677.91;4870839;29;20131;-80
2024/03/20 07:36:36;;;;;;;24.40;14.07;;;8.10;99.90;;;6.93;71.61;101679.44;4873498;28;20111;-81
2024/03/20 07:39:08;;;;;;;21.92;13.25;;;8.20;99.90;;;7.01;70.95;101680.19;4893489;28;20044;-81
2024/03/20 07:41:37;;;;;;;22.42;12.27;;;8.30;99.90;;;7.07;70.14;101671.38;4875400;29;20036;-80
2024/03/20 07:44:03;;;;;;;20.73;12.50;;;8.30;99.90;;;7.08;70.11;101671.31;4868713;28;20050;-80
2024/03/20 07:46:29;;;;;;;24.60;12.23;;;8.40;99.90;;;7.15;70.04;101677.34;4864250;28;20118;-81
2024/03/20 07:48:54;;;;;;;24.02;12.88;;;8.40;99.90;;;7.17;69.56;101683.38;4843959;28;20111;-80
2024/03/20 07:51:20;;;;;;;21.67;12.65;;;8.40;99.90;;;7.25;70.03;101676.28;4863627;29;20040;-85
2024/03/20 07:53:55;;;;;;;20.08;11.90;;;8.50;99.90;;;7.33;69.57;101676.16;4872869;29;20047;-84
2024/03/20 07:56:21;;;;;;;23.27;12.60;;;;;;;7.25;69.11;101672.78;4861459;28;20048;-85
2024/03/20 07:58:47;;;;;;;26.45;12.73;;;8.50;99.90;;;7.25;68.82;101671.03;4865409;28;20562;-85
2024/03/20 08:01:20;;;;;;;22.00;11.77;;;8.50;99.90;;;7.29;69.32;101677.09;4825973;29;20065;-84
2024/03/20 08:03:48;;;;;;;17.67;12.02;;;8.50;99.90;;;7.33;68.72;101684.00;4816624;29;20048;-84
2024/03/20 08:06:14;;;;;;;25.55;13.82;;;8.60;99.90;;;7.40;69.11;101677.75;4843364;29;20050;-84
2024/03/20 08:08:40;;;;;;;24.27;12.68;;;8.70;99.90;;;7.48;69.34;101675.88;4875731;28;20035;-85
2024/03/20 08:11:14;;;;;;;26.77;13.30;;;8.70;99.90;;;7.58;69.38;101685.28;4864643;28;20035;-84
2024/03/20 08:13:40;;;;;;;24.05;12.82;;;8.90;99.90;;;7.69;69.17;101684.19;4877992;28;20063;-85
2024/03/20 08:16:07;;;;;;;29.30;13.00;;;9.00;99.90;;;7.81;69.60;101686.59;4857330;28;20431;-87
2024/03/20 08:18:33;;;;;;;21.88;12.55;;;9.10;99.90;;;7.98;69.39;101694.97;4830997;29;20079;-86
2024/03/20 08:21:09;;;;;;;21.92;12.80;;;9.20;99.90;;;8.03;68.11;101705.38;4846845;28;20431;-86
2024/03/20 08:23:36;;;;;;;20.50;12.75;;;;;;;8.11;68.12;101702.59;4849654;29;20048;-85
2024/03/20 08:26:11;;;;;;;26.88;13.20;;;9.30;99.90;;;8.18;67.97;101701.56;4891326;28;20065;-86
2024/03/20 08:28:37;;;;;;;22.13;11.95;;;9.40;99.90;;;8.24;67.80;101700.59;4856668;29;20048;-85
2024/03/20 08:31:13;;;;;;;22.67;12.45;;;9.50;99.90;;;8.31;67.26;101708.28;4830136;29;20036;-85
2024/03/20 08:33:40;;;;;;;21.40;11.68;;;9.60;99.90;;;8.37;67.59;101708.16;4839579;29;20052;-85
2024/03/20 08:36:09;;;;;;;18.65;12.25;;;9.60;99.90;;;8.41;66.76;101709.84;4863330;29;20096;-84
2024/03/20 08:38:46;;;;;;;19.48;11.63;;;9.70;99.90;;;8.44;66.59;101710.69;4837847;29;20052;-86
2024/03/20 08:41:12;;;;;;;18.13;11.30;;;9.70;99.90;;;8.49;66.18;101720.19;4862438;29;20056;-86
2024/03/20 08:43:48;;;;;;;19.02;12.15;;;9.70;99.90;;;8.48;66.06;101709.72;4827502;29;20037;-86
2024/03/20 08:46:14;;;;;;;26.52;12.30;;;9.70;99.90;;;8.52;65.72;101716.63;4881330;29;20086;-86
2024/03/20 08:48:41;;;;;;;20.83;11.68;;;9.70;99.90;;;8.52;65.63;101711.38;4876359;29;20043;-85
2024/03/20 08:51:15;;;;;;;24.17;13.18;;;9.70;99.90;;;8.60;66.66;101715.56;4872297;29;20040;-85
2024/03/20 08:53:41;;;;;;;19.15;11.80;;;9.80;99.90;;;8.67;66.31;101711.03;4879946;28;20490;-86
2024/03/20 08:56:07;;;;;;;19.52;12.05;;;;;;;8.72;66.37;101714.41;4883919;29;20043;-86
2024/03/20 08:58:33;;;;;;;18.48;11.73;;;10.00;99.90;;;8.79;65.77;101715.13;4894983;28;20048;-88
2024/03/20 09:01:11;;;;;;;25.02;12.27;;;10.00;99.90;;;8.88;65.71;101719.34;4863968;28;20410;-87
2024/03/20 09:03:37;;;;;;;21.73;11.27;;;;;;;8.97;65.82;101724.34;4880115;29;20049;-86
2024/03/20 09:06:25;;;;;;;17.58;11.45;;;10.20;99.90;;;9.09;65.96;101731.06;4870516;28;20119;-87
2024/03/20 09:08:54;;;;;;;21.27;11.77;;;;;;;9.22;65.99;101741.25;4864436;29;20142;-86
2024/03/20 09:11:46;;;;;;;23.33;11.70;;;10.40;99.90;;;9.37;66.15;101739.13;4890396;29;20036;-87
2024/03/20 09:14:13;;;;;;;20.42;11.15;;;;;;;9.51;65.30;101744.91;4913061;23;20043;-86
2024/03/20 09:16:56;;;;;;;18.30;11.52;;;;;;;9.65;64.60;101748.03;4889134;28;20140;-85
2024/03/20 09:19:31;;;;;;;17.10;10.65;;;10.90;99.90;;;9.84;64.00;101756.28;4899082;29;20039;-85
2024/03/20 09:22:15;;;;;;;20.38;11.68;;;;;;;9.99;63.67;101749.75;4880738;28;20038;-85
2024/03/20 09:24:49;;;;;;;18.40;11.32;;;11.20;99.90;;;10.03;60.79;101779.47;4897888;28;20043;-86
2024/03/20 09:27:15;;;;;;;23.30;11.73;;;;;;;10.00;59.83;101772.53;4926282;28;20099;-86
2024/03/20 09:29:42;;;;;;;17.30;10.95;;;11.20;99.90;;;9.97;59.46;101779.63;4895956;28;20099;-85
2024/03/20 09:32:20;;;;;;;20.90;11.35;;;11.10;99.90;;;9.92;60.72;101765.75;4879663;29;20055;-87
2024/03/20 09:34:55;;;;;;;19.65;11.60;;;11.10;99.90;;;9.95;61.04;101760.41;4911673;28;20099;-84
2024/03/20 09:37:22;;;;;;;19.48;11.48;;;11.20;99.90;;;10.03;61.57;101766.31;4881698;29;20071;-86
2024/03/20 09:39:48;;;;;;;23.55;12.80;;;;;;;10.10;60.97;101762.59;4898256;28;20095;-87
2024/03/20 09:42:16;;;;;;;24.20;13.35;;;;;;;10.17;61.93;101758.91;4918950;28;20050;-87
2024/03/20 09:44:53;;;;;;;19.45;11.98;;;11.30;99.90;;;10.21;61.28;101767.56;4886770;28;20052;-87
2024/03/20 09:47:32;;;;;;;20.50;12.45;;;11.40;99.90;;;10.26;61.10;101768.31;4890436;28;20043;-86
2024/03/20 09:49:59;;;;;;;18.95;11.75;;;;;;;10.27;60.50;101770.88;4929193;28;20054;-86
2024/03/20 09:52:51;;;;;;;25.75;12.00;;;11.40;99.90;;;10.20;61.05;101771.97;4879067;23;20130;-86
2024/03/20 09:55:18;;;;;;;20.35;12.57;;;11.40;99.90;;;10.16;61.36;101766.84;4923484;28;20338;-86
2024/03/20 09:57:55;;;;;;;19.85;12.00;;;11.30;99.90;;;10.11;60.97;101774.88;4902136;28;20051;-85
2024/03/20 10:00:22;;;;;;;24.13;12.35;;;;;;;10.07;61.12;101784.59;4906954;28;20384;-88
2024/03/20 10:02:49;;;;;;;30.83;12.02;;;11.20;99.90;;;10.03;61.55;101782.97;4894070;28;22313;-85
2024/03/20 10:05:40;;;;;;;23.30;12.27;;;11.20;99.90;;;9.97;61.58;101772.59;4903110;28;20042;-86
2024/03/20 10:08:19;;;;;;;22.83;11.25;;;11.20;99.90;;;9.91;61.66;101779.78;4891772;28;20059;-86
2024/03/20 10:10:57;;;;;;;19.63;12.10;;;11.10;99.90;;;9.83;61.87;101782.66;4925585;28;20422;-87
2024/03/20 10:13:27;;;;;;;21.40;12.68;;;11.00;99.90;;;9.78;62.64;101774.00;4845727;28;20045;-86
2024/03/20 10:16:23;;;;;;;23.25;11.95;;;11.00;99.90;;;9.65;62.30;101771.72;4891917;28;20043;-88
2024/03/20 10:19:32;;;;;;;22.87;12.03;;;10.90;99.90;;;9.54;62.63;101776.38;4895479;28;21338;-87
2024/03/20 10:22:00;;;;;;;23.23;11.80;;;10.80;99.90;;;9.50;62.92;101772.09;4846534;29;20265;-85